Ana Sayfa
METAR-TAF:

METAR-TAF

Havaalanları :

Tucson, Arizona, Amerika Birleşik Devletleri

Enlem: 32-07-53N, Boylam: 110-57-19W, yükseklik: 805 m

Güncel hava durumu gözlemi

Rapor saat 07:53 UTC de 25 dakika önce yapıldı.
Rüzgar değişken yönden 3 kt
Sıcaklık 6°C
Nem 39%
Basınç 1021 hPa
Görüş mesafesi: 16.1 km
Açık gökyüzü

METAR: KTUS 280753Z VRB03KT 10SM CLR 06/M07 A3015 RMK AO2 SLP197 T00611067

Saat: 01:18 (08:18 UTC)

Tahmin

Rapor saat 05:32 UTC de 2 saat ve 46 dakika önce yapıldı.
Ayın 28'si saat 06 UTC'den ayın 29'si saat 06 UTC'ye kadar geçerli Tahmin
Rüzgar güney/güneybatıdan 3 kt
Görüş mesafesi: 10 km
10000 ft yükseklikte parçalı bulutlu
Ayın 28'si saat 0700 UTC'den
Rüzgar güney/güneydoğudan 4 kt
Görüş mesafesi: 10 km
Açık gökyüzü
Ayın 29'si saat 0000 UTC'den
Rüzgar kuzeybatıdan 7 kt
Görüş mesafesi: 10 km
25000 ft yükseklikte parçalı bulutlu

TAF: KTUS 280532Z 2806/2906 21003KT P6SM SCT100 FM280700 15004KT P6SM SKC FM290000 32007KT P6SM SCT250

4.000'den fazla havaalanı için hava durumu gözlemleri ve tahminleri (METAR ve TAF raporları).

Kullanılabilir istasyonlar harita üzerinde sarı ve kırmızı noktalarla gösterilir.

İstasyonun adını görmek için fareyi noktanın üzerinde gezdirin.

Sonrasında hava gözlem ve tahminlerini görmek için tıklayın.

Haritayı değiştirmek için: yaklaştırmak için siyah artı işaretli yeşil düğmeye ve uzaklaştırmak için de eksi işaretli düğmeye hızla tıklayın; bitişik haritalar için yeşil okları kullanın.


METAR-TAF: